Time;durP1;ratioP1;P1;durP2;ratioP2;P2;SDS_P1;SDS_P2;PMS_P1;PMS_P2;Temp;Humidity;BMP_temperature;BMP_pressure;BME280_temperature;BME280_humidity;BME280_pressure;Samples;Min_cycle;Max_cycle;Signal;HPM_P1;HPM_P2
2022/10/06 00:02:21;;;;;;;1.73;0.63;;;14.60;99.90;;;;;;4968753;28;20442;-84
2022/10/06 00:04:46;;;;;;;1.38;0.45;;;14.60;99.90;;;;;;4952299;28;20086;-84
2022/10/06 00:07:13;;;;;;;1.02;0.57;;;14.60;99.90;;;;;;4955932;28;20043;-84
2022/10/06 00:09:38;;;;;;;4.25;0.55;;;14.50;99.90;;;;;;4953286;28;20065;-84
2022/10/06 00:12:04;;;;;;;1.27;0.60;;;14.50;99.90;;;;;;4954296;28;20046;-84
2022/10/06 00:14:30;;;;;;;3.40;0.40;;;14.60;99.90;;;;;;4974169;28;20031;-84
2022/10/06 00:16:55;;;;;;;6.03;1.05;;;14.40;99.90;;;;;;4986673;28;20131;-84
2022/10/06 00:19:21;;;;;;;3.05;0.95;;;14.40;99.90;;;;;;4985167;28;20040;-84
2022/10/06 00:21:46;;;;;;;1.92;0.68;;;14.40;99.90;;;;;;4974023;28;20027;-84
2022/10/06 00:24:12;;;;;;;1.33;0.47;;;14.40;99.90;;;;;;4947798;28;20073;-84
2022/10/06 00:26:38;;;;;;;1.20;0.50;;;14.30;99.90;;;;;;4945540;28;20379;-83
2022/10/06 00:29:03;;;;;;;5.65;1.00;;;14.40;99.90;;;;;;4947456;28;21583;-83
2022/10/06 00:31:29;;;;;;;1.05;0.63;;;14.40;99.90;;;;;;4953078;28;20031;-83
2022/10/06 00:33:54;;;;;;;4.38;0.45;;;14.30;99.90;;;;;;4948324;28;20093;-83
2022/10/06 00:36:20;;;;;;;4.40;0.47;;;14.30;99.90;;;;;;4952379;28;20027;-83
2022/10/06 00:38:46;;;;;;;1.85;0.55;;;14.20;99.90;;;;;;4953215;28;20538;-83
2022/10/06 00:41:12;;;;;;;0.80;0.65;;;14.10;99.90;;;;;;4956758;28;20097;-83
2022/10/06 00:43:45;;;;;;;2.17;0.55;;;14.10;99.90;;;;;;4964391;28;20529;-83
2022/10/06 00:46:20;;;;;;;1.55;0.47;;;14.00;99.90;;;;;;4978505;28;20458;-83
2022/10/06 00:48:47;;;;;;;2.47;0.40;;;13.90;99.90;;;;;;4964044;28;20030;-83
2022/10/06 00:51:13;;;;;;;5.30;0.80;;;13.80;99.90;;;;;;4986126;28;20042;-83
2022/10/06 00:53:39;;;;;;;2.55;0.70;;;13.80;99.90;;;;;;4986773;28;20065;-83
2022/10/06 00:56:04;;;;;;;4.15;0.80;;;13.70;99.90;;;;;;5003602;28;20031;-83
2022/10/06 00:58:31;;;;;;;2.33;0.45;;;13.70;99.90;;;;;;4948473;28;20042;-83
2022/10/06 01:00:56;;;;;;;2.72;0.60;;;13.70;99.90;;;;;;4968192;28;20550;-83
2022/10/06 01:03:37;;;;;;;3.25;0.55;;;13.60;99.90;;;;;;4993337;28;20129;-83
2022/10/06 01:06:03;;;;;;;1.75;0.60;;;13.60;99.90;;;;;;4985612;28;20026;-83
2022/10/06 01:08:29;;;;;;;4.25;1.00;;;13.50;99.90;;;;;;5002390;28;20049;-83
2022/10/06 01:10:55;;;;;;;3.50;0.55;;;13.50;99.90;;;;;;4985375;28;20039;-83
2022/10/06 01:13:21;;;;;;;3.17;0.40;;;13.50;99.90;;;;;;4970880;28;20030;-83
2022/10/06 01:16:09;;;;;;;4.90;0.82;;;13.30;99.90;;;;;;4991402;28;20542;-83
2022/10/06 01:18:35;;;;;;;7.47;1.27;;;13.30;99.90;;;;;;4982725;28;20557;-82
2022/10/06 01:21:16;;;;;;;1.58;0.60;;;13.30;99.90;;;;;;4968336;28;20383;-83
2022/10/06 01:23:41;;;;;;;4.85;1.67;;;13.20;99.90;;;;;;5011210;28;20042;-83
2022/10/06 01:26:08;;;;;;;2.50;0.77;;;13.20;99.90;;;;;;4983061;28;20031;-82
2022/10/06 01:28:33;;;;;;;5.88;0.50;;;13.10;99.90;;;;;;4947000;28;20026;-82
2022/10/06 01:31:00;;;;;;;5.30;1.00;;;13.20;99.90;;;;;;4952457;28;20380;-83
2022/10/06 01:33:26;;;;;;;3.90;0.65;;;13.00;99.90;;;;;;4951592;28;20034;-82
2022/10/06 01:35:51;;;;;;;2.95;1.08;;;13.10;99.90;;;;;;4946468;28;20566;-82
2022/10/06 01:38:18;;;;;;;4.88;0.88;;;13.00;99.90;;;;;;4941495;28;20042;-82
2022/10/06 01:40:44;;;;;;;0.85;0.57;;;13.00;99.90;;;;;;4960873;28;20035;-82
2022/10/06 01:43:10;;;;;;;4.03;0.88;;;13.10;99.90;;;;;;4952302;28;20035;-82
2022/10/06 01:45:35;;;;;;;1.48;0.20;;;13.00;99.90;;;;;;4969179;28;20129;-82
2022/10/06 01:48:01;;;;;;;9.05;1.35;;;12.90;99.90;;;;;;4985122;28;20116;-82
2022/10/06 01:50:26;;;;;;;7.97;1.10;;;13.00;99.90;;;;;;4988797;28;20034;-82
2022/10/06 01:52:54;;;;;;;2.95;0.90;;;13.00;99.90;;;;;;4965429;28;20437;-82
2022/10/06 01:55:20;;;;;;;3.85;1.20;;;12.80;99.90;;;;;;4985702;28;20505;-82
2022/10/06 01:57:45;;;;;;;7.78;2.08;;;12.80;99.90;;;;;;4968687;28;20030;-82
2022/10/06 02:00:11;;;;;;;3.72;1.02;;;12.70;99.90;;;;;;4969495;28;20517;-82
2022/10/06 02:02:37;;;;;;;5.88;0.63;;;12.80;99.90;;;;;;4944343;28;20029;-82
2022/10/06 02:05:03;;;;;;;10.95;1.45;;;12.80;99.90;;;;;;4943450;28;20415;-82
2022/10/06 02:07:28;;;;;;;4.53;0.90;;;12.80;99.90;;;;;;4948454;28;20026;-82
2022/10/06 02:09:54;;;;;;;7.05;1.55;;;12.80;99.90;;;;;;4981205;28;20038;-82
2022/10/06 02:12:20;;;;;;;6.32;1.52;;;12.70;99.90;;;;;;4948175;28;20034;-82
2022/10/06 02:14:45;;;;;;;9.68;1.98;;;12.70;99.90;;;;;;4946971;28;20424;-82
2022/10/06 02:17:11;;;;;;;6.15;0.90;;;12.60;99.90;;;;;;4952130;28;20128;-82
2022/10/06 02:19:37;;;;;;;7.55;1.48;;;12.60;99.90;;;;;;4966170;28;20047;-84
2022/10/06 02:22:02;;;;;;;10.40;1.77;;;12.70;99.90;;;;;;4951909;28;20037;-84
2022/10/06 02:24:29;;;;;;;6.95;1.27;;;12.60;99.90;;;;;;4941805;28;20037;-82
2022/10/06 02:26:54;;;;;;;2.70;0.88;;;12.60;99.90;;;;;;4940998;28;20108;-82
2022/10/06 02:29:20;;;;;;;9.07;1.65;;;12.60;99.90;;;;;;4965052;28;20022;-82
2022/10/06 02:31:46;;;;;;;5.88;1.05;;;12.60;99.90;;;;;;4949726;28;20034;-82
2022/10/06 02:34:11;;;;;;;9.98;0.90;;;12.60;99.90;;;;;;4974011;28;20125;-82
2022/10/06 02:36:37;;;;;;;9.68;1.55;;;12.60;99.90;;;;;;4994780;28;20037;-82
2022/10/06 02:39:03;;;;;;;12.25;2.28;;;12.50;99.90;;;;;;4984798;28;20046;-82
2022/10/06 02:41:29;;;;;;;9.55;1.60;;;12.50;99.90;;;;;;4999701;28;20031;-82
2022/10/06 02:43:55;;;;;;;5.90;0.70;;;12.50;99.90;;;;;;4951777;28;20041;-83
2022/10/06 02:46:21;;;;;;;3.92;0.80;;;12.50;99.90;;;;;;4947106;28;20034;-82
2022/10/06 02:48:46;;;;;;;5.80;1.13;;;12.50;99.90;;;;;;4949457;28;20034;-82
2022/10/06 02:51:14;;;;;;;5.18;0.70;;;12.50;99.90;;;;;;4967503;28;20034;-83
2022/10/06 02:53:43;;;;;;;1.25;0.70;;;12.50;99.90;;;;;;4947516;28;20032;-82
2022/10/06 02:56:14;;;;;;;14.65;2.33;;;12.40;99.90;;;;;;4950959;28;20054;-82
2022/10/06 02:58:41;;;;;;;4.05;1.00;;;12.50;99.90;;;;;;4968483;28;20077;-83
2022/10/06 03:01:10;;;;;;;6.10;1.17;;;12.40;99.90;;;;;;4950896;28;20406;-82
2022/10/06 03:03:36;;;;;;;4.18;1.38;;;12.40;99.90;;;;;;4967553;28;20034;-82
2022/10/06 03:06:20;;;;;;;10.25;1.35;;;12.40;99.90;;;;;;4947518;28;20070;-82
2022/10/06 03:09:04;;;;;;;7.63;1.30;;;12.50;99.90;;;;;;4983705;28;20388;-82
2022/10/06 03:11:34;;;;;;;3.50;0.85;;;12.40;99.90;;;;;;4979061;28;20042;-82
2022/10/06 03:14:00;;;;;;;6.10;1.05;;;12.40;99.90;;;;;;4942574;28;20043;-82
2022/10/06 03:16:28;;;;;;;6.93;0.95;;;12.50;99.90;;;;;;4950655;28;20042;-82
2022/10/06 03:18:54;;;;;;;5.97;1.30;;;12.40;99.90;;;;;;4994080;28;20071;-82
2022/10/06 03:21:22;;;;;;;7.93;1.55;;;12.30;99.90;;;;;;4957781;28;20467;-82
2022/10/06 03:23:48;;;;;;;10.40;1.10;;;12.30;99.90;;;;;;4974724;28;20057;-82
2022/10/06 03:26:14;;;;;;;3.45;1.17;;;12.30;99.90;;;;;;4941332;28;20446;-82
2022/10/06 03:28:40;;;;;;;3.63;0.73;;;12.10;99.90;;;;;;4963849;28;20038;-82
2022/10/06 03:31:06;;;;;;;5.55;1.05;;;12.20;99.90;;;;;;4965999;28;20099;-83
2022/10/06 03:33:32;;;;;;;4.20;1.00;;;12.20;99.90;;;;;;4967125;28;20569;-82
2022/10/06 03:36:14;;;;;;;8.48;1.00;;;12.20;99.90;;;;;;4948060;28;20038;-82
2022/10/06 03:38:39;;;;;;;4.93;1.13;;;12.10;99.90;;;;;;4969151;28;20042;-82
2022/10/06 03:41:07;;;;;;;6.95;1.40;;;12.10;99.90;;;;;;4946529;28;20031;-82
2022/10/06 03:43:33;;;;;;;7.68;1.20;;;12.10;99.90;;;;;;4963154;28;20067;-83
2022/10/06 03:45:59;;;;;;;13.27;1.75;;;11.90;99.90;;;;;;5024028;28;20092;-82
2022/10/06 03:48:26;;;;;;;9.68;1.45;;;12.00;99.90;;;;;;4965861;28;20038;-82
2022/10/06 03:50:59;;;;;;;6.32;1.38;;;11.90;99.90;;;;;;4985575;28;20068;-82
2022/10/06 03:53:26;;;;;;;5.15;1.08;;;12.00;99.90;;;;;;4958422;28;20122;-82
2022/10/06 03:56:11;;;;;;;10.23;1.40;;;12.00;99.90;;;;;;4941831;28;20493;-82
2022/10/06 03:58:38;;;;;;;12.15;1.60;;;11.90;99.90;;;;;;4953131;28;20043;-82
2022/10/06 04:01:06;;;;;;;5.95;0.80;;;11.90;99.90;;;;;;4985887;28;20030;-81
2022/10/06 04:03:32;;;;;;;6.50;1.65;;;11.90;99.90;;;;;;4972186;28;20117;-82
2022/10/06 04:05:59;;;;;;;9.40;1.92;;;11.80;99.90;;;;;;4946189;28;20117;-82
2022/10/06 04:08:25;;;;;;;6.05;1.77;;;11.90;99.90;;;;;;4953659;28;20035;-82
2022/10/06 04:10:51;;;;;;;6.90;1.27;;;11.80;99.90;;;;;;4942924;28;20113;-83
2022/10/06 04:13:17;;;;;;;9.88;1.20;;;11.80;99.90;;;;;;4966398;28;20038;-82
2022/10/06 04:15:43;;;;;;;8.32;1.60;;;11.70;99.90;;;;;;4967268;28;20042;-82
2022/10/06 04:18:10;;;;;;;5.78;1.80;;;11.70;99.90;;;;;;4949679;28;20038;-82
2022/10/06 04:20:36;;;;;;;5.30;1.70;;;11.70;99.90;;;;;;4949509;28;20458;-82
2022/10/06 04:23:01;;;;;;;6.28;1.80;;;11.70;99.90;;;;;;4964479;28;20114;-82
2022/10/06 04:25:27;;;;;;;11.32;1.80;;;11.70;99.90;;;;;;4971949;28;20030;-82
2022/10/06 04:27:52;;;;;;;5.60;1.52;;;11.60;99.90;;;;;;4954389;28;20030;-82
2022/10/06 04:30:18;;;;;;;8.07;1.67;;;11.60;99.90;;;;;;4966253;28;20030;-82
2022/10/06 04:32:44;;;;;;;8.10;2.05;;;11.50;99.90;;;;;;4970318;28;20027;-82
2022/10/06 04:35:10;;;;;;;7.60;1.40;;;11.50;99.90;;;;;;4948277;28;20042;-82
2022/10/06 04:37:36;;;;;;;8.02;1.30;;;11.60;99.90;;;;;;4982385;28;20444;-82
2022/10/06 04:40:01;;;;;;;9.15;1.08;;;11.50;99.90;;;;;;4946480;28;20512;-82
2022/10/06 04:42:28;;;;;;;9.20;1.90;;;11.60;99.90;;;;;;4978636;28;20042;-83
2022/10/06 04:44:54;;;;;;;3.63;1.20;;;11.50;99.90;;;;;;4967014;28;20038;-82
2022/10/06 04:47:19;;;;;;;9.68;1.50;;;11.50;99.90;;;;;;4970230;28;20095;-82
2022/10/06 04:49:45;;;;;;;5.82;1.17;;;11.40;99.90;;;;;;5002667;28;20635;-82
2022/10/06 04:52:11;;;;;;;8.05;1.60;;;11.30;99.90;;;;;;5013483;28;20038;-81
2022/10/06 04:54:36;;;;;;;5.38;1.52;;;11.40;99.90;;;;;;4972041;28;20073;-81
2022/10/06 04:57:02;;;;;;;17.73;1.90;;;11.40;99.90;;;;;;4975446;28;20125;-82
2022/10/06 05:02:12;;;;;;;9.23;1.70;;;11.30;99.90;;;;;;4972617;28;20050;-82
2022/10/06 05:04:38;;;;;;;9.10;1.45;;;11.30;99.90;;;;;;4996117;28;20030;-82
2022/10/06 05:07:04;;;;;;;4.70;1.30;;;11.30;99.90;;;;;;4949207;28;20108;-81
2022/10/06 05:09:30;;;;;;;8.65;1.98;;;11.20;99.90;;;;;;4968278;28;20546;-81
2022/10/06 05:11:55;;;;;;;5.55;1.50;;;11.20;99.90;;;;;;4944870;28;20035;-82
2022/10/06 05:14:21;;;;;;;7.35;1.67;;;11.20;99.90;;;;;;4952701;28;20039;-81
2022/10/06 05:16:46;;;;;;;4.75;1.27;;;11.10;99.90;;;;;;4951651;28;20070;-81
2022/10/06 05:19:12;;;;;;;9.80;1.90;;;11.10;99.90;;;;;;4944935;28;20069;-81
2022/10/06 05:21:37;;;;;;;7.93;1.48;;;11.10;99.90;;;;;;4956437;28;20026;-81
2022/10/06 05:24:03;;;;;;;10.45;1.67;;;11.00;99.90;;;;;;4980604;28;20039;-84
2022/10/06 05:26:30;;;;;;;14.55;1.60;;;11.00;99.90;;;;;;4953142;28;20034;-83
2022/10/06 05:28:56;;;;;;;8.15;1.88;;;11.00;99.90;;;;;;4959895;28;20026;-85
2022/10/06 05:31:23;;;;;;;11.38;1.88;;;11.00;99.90;;;;;;4997945;28;20085;-84
2022/10/06 05:33:48;;;;;;;4.13;1.70;;;11.00;99.90;;;;;;4970879;28;20134;-84
2022/10/06 05:36:19;;;;;;;7.53;1.10;;;10.90;99.90;;;;;;4966351;28;20257;-84
2022/10/06 05:38:44;;;;;;;5.68;1.58;;;10.80;99.90;;;;;;4951627;28;20486;-85
2022/10/06 05:41:11;;;;;;;4.30;1.30;;;10.90;99.90;;;;;;4942038;28;20031;-84
2022/10/06 05:43:37;;;;;;;8.10;1.30;;;11.00;99.90;;;;;;4946029;28;20038;-84
2022/10/06 05:46:04;;;;;;;9.40;1.40;;;10.90;99.90;;;;;;4944753;28;20388;-83
2022/10/06 05:48:30;;;;;;;8.30;1.55;;;10.80;99.90;;;;;;4952000;28;20043;-84
2022/10/06 05:51:00;;;;;;;8.15;1.15;;;10.80;99.90;;;;;;4981025;28;20074;-85
2022/10/06 05:53:26;;;;;;;7.53;1.20;;;10.80;99.90;;;;;;4962769;28;20085;-83
2022/10/06 05:55:52;;;;;;;6.13;1.38;;;10.80;99.90;;;;;;4951586;28;20038;-85
2022/10/06 05:58:18;;;;;;;8.27;1.45;;;10.70;99.90;;;;;;4967069;28;20598;-85
2022/10/06 06:00:43;;;;;;;9.07;1.42;;;10.70;99.90;;;;;;4958230;28;20023;-84
2022/10/06 06:03:09;;;;;;;10.85;1.52;;;10.80;99.90;;;;;;4967809;28;20065;-84
2022/10/06 06:05:40;;;;;;;3.58;1.10;;;10.70;99.90;;;;;;4968658;28;20117;-84
2022/10/06 06:08:05;;;;;;;11.02;1.42;;;10.80;99.90;;;;;;4979438;28;20553;-84
2022/10/06 06:10:31;;;;;;;8.07;1.27;;;10.80;99.90;;;;;;5006300;28;20027;-84
2022/10/06 06:12:56;;;;;;;7.40;1.30;;;10.80;99.90;;;;;;4983686;28;20386;-85
2022/10/06 06:16:22;;;;;;;9.57;1.88;;;10.70;99.90;;;;;;4944997;28;20360;-85
2022/10/06 06:18:17;;;;;;;6.13;1.23;;;10.70;99.90;;;;;;4965393;28;20108;-84
2022/10/06 06:20:42;;;;;;;7.50;0.80;;;10.70;99.90;;;;;;4957896;28;20027;-84
2022/10/06 06:23:08;;;;;;;5.13;0.70;;;10.70;99.90;;;;;;5004261;28;20387;-84
2022/10/06 06:25:34;;;;;;;6.10;1.20;;;10.80;99.90;;;;;;4945077;28;20030;-84
2022/10/06 06:27:59;;;;;;;9.25;1.20;;;10.80;99.90;;;;;;4944586;28;20037;-84
2022/10/06 06:30:25;;;;;;;6.22;1.35;;;10.70;99.90;;;;;;4950720;28;20042;-85
2022/10/06 06:32:59;;;;;;;12.75;1.38;;;10.80;99.90;;;;;;4937341;28;20037;-84
2022/10/06 06:35:24;;;;;;;8.27;1.27;;;10.70;99.90;;;;;;4971210;28;20441;-84
2022/10/06 06:37:50;;;;;;;4.40;1.20;;;10.80;99.90;;;;;;4966154;28;20055;-84
2022/10/06 06:40:18;;;;;;;11.23;1.67;;;10.80;99.90;;;;;;4945241;28;20041;-85
2022/10/06 06:42:47;;;;;;;7.40;1.35;;;10.90;99.90;;;;;;4946653;28;20080;-84
2022/10/06 06:45:13;;;;;;;5.20;1.10;;;10.80;99.90;;;;;;4968071;28;20562;-84
2022/10/06 06:47:39;;;;;;;10.63;1.17;;;10.90;99.90;;;;;;4947427;28;20098;-85
2022/10/06 06:50:09;;;;;;;3.60;1.20;;;11.00;99.90;;;;;;4973336;28;20038;-84
2022/10/06 06:52:35;;;;;;;9.05;1.70;;;11.00;99.90;;;;;;4975275;28;20703;-84
2022/10/06 06:55:00;;;;;;;9.93;1.27;;;10.90;99.90;;;;;;4941207;28;20027;-84
2022/10/06 06:57:26;;;;;;;5.47;1.88;;;11.00;99.90;;;;;;4966120;28;20108;-84
2022/10/06 06:59:51;;;;;;;7.68;1.63;;;11.20;99.90;;;;;;4978661;28;20034;-84
2022/10/06 07:02:17;;;;;;;6.82;0.93;;;11.10;99.90;;;;;;4947762;28;20125;-84
2022/10/06 07:04:42;;;;;;;12.40;1.73;;;11.20;99.90;;;;;;4949497;28;20045;-84
2022/10/06 07:07:10;;;;;;;9.43;1.15;;;11.30;99.90;;;;;;4970724;28;20031;-84
2022/10/06 07:09:35;;;;;;;7.72;1.65;;;11.30;99.90;;;;;;4977440;28;20068;-84
2022/10/06 07:12:01;;;;;;;9.77;1.98;;;11.30;99.90;;;;;;4989744;28;20110;-84
2022/10/06 07:14:26;;;;;;;14.15;1.77;;;11.30;99.90;;;;;;4942848;28;21037;-84
2022/10/06 07:25:05;;;;;;;11.55;1.20;;;11.50;99.90;;;;;;5000426;28;20069;-84
2022/10/06 07:27:42;;;;;;;10.13;1.73;;;11.70;99.90;;;;;;5018218;28;20034;-84
2022/10/06 07:30:09;;;;;;;10.73;2.35;;;11.80;99.90;;;;;;4976155;28;20034;-83
2022/10/06 07:32:36;;;;;;;7.95;1.65;;;11.90;99.90;;;;;;5018519;28;20082;-84
2022/10/06 07:35:03;;;;;;;12.70;2.67;;;11.90;99.90;;;;;;4980891;28;20054;-84
2022/10/06 07:37:28;;;;;;;7.05;1.42;;;11.90;99.90;;;;;;4968353;28;20039;-84
2022/10/06 07:39:54;;;;;;;14.73;1.75;;;12.00;99.90;;;;;;4947932;28;20477;-84
2022/10/06 07:42:19;;;;;;;8.18;1.48;;;12.10;99.90;;;;;;4971900;28;20035;-84
2022/10/06 07:47:30;;;;;;;12.93;2.38;;;12.50;99.90;;;;;;4973282;28;20082;-82
2022/10/06 07:49:57;;;;;;;12.27;1.55;;;12.30;99.90;;;;;;4958928;28;20145;-83
2022/10/06 07:52:27;;;;;;;11.07;2.55;;;12.80;99.90;;;;;;4989259;28;20315;-82
2022/10/06 07:54:53;;;;;;;16.02;2.67;;;12.80;99.90;;;;;;5003537;28;20465;-83
2022/10/06 07:57:19;;;;;;;9.57;2.10;;;12.80;99.90;;;;;;4968279;28;20045;-83
2022/10/06 07:59:45;;;;;;;7.82;1.75;;;13.10;99.90;;;;;;4973583;28;20388;-83
2022/10/06 08:02:10;;;;;;;16.50;2.50;;;13.20;99.90;;;;;;4970076;28;20035;-82
2022/10/06 08:04:36;;;;;;;17.25;3.33;;;13.30;99.90;;;;;;4947382;28;20034;-83
2022/10/06 08:07:02;;;;;;;17.17;2.00;;;13.00;99.90;;;;;;4954848;28;20046;-82
2022/10/06 08:09:29;;;;;;;11.80;1.75;;;13.40;99.90;;;;;;4944961;28;20125;-82
2022/10/06 08:11:55;;;;;;;13.85;2.10;;;13.50;99.90;;;;;;4970543;28;20201;-83
2022/10/06 08:14:21;;;;;;;6.93;1.75;;;13.70;99.90;;;;;;4967775;28;20525;-82
2022/10/06 08:16:47;;;;;;;8.57;1.75;;;14.00;99.90;;;;;;4947916;28;20125;-82
2022/10/06 08:19:13;;;;;;;13.85;2.35;;;13.90;99.90;;;;;;4969698;28;20197;-83
2022/10/06 08:21:39;;;;;;;12.75;1.88;;;13.90;99.90;;;;;;4954240;28;20486;-83
2022/10/06 08:24:04;;;;;;;16.00;2.22;;;13.80;99.90;;;;;;4964093;28;20049;-83
2022/10/06 08:26:31;;;;;;;18.55;3.85;;;14.30;99.90;;;;;;4982972;28;20035;-82
2022/10/06 08:29:01;;;;;;;16.95;2.20;;;14.60;99.90;;;;;;4954595;28;20249;-82
2022/10/06 08:31:27;;;;;;;18.77;2.55;;;14.80;99.90;;;;;;4946542;28;20175;-83
2022/10/06 08:33:54;;;;;;;14.40;2.85;;;14.60;99.90;;;;;;4948244;28;20079;-83
2022/10/06 08:36:20;;;;;;;12.48;1.95;;;15.00;99.90;;;;;;4944066;28;20046;-83
2022/10/06 08:38:49;;;;;;;5.78;1.30;;;15.20;99.90;;;;;;4969984;28;20050;-83
2022/10/06 08:41:35;;;;;;;13.40;2.85;;;15.10;99.90;;;;;;4945604;28;20031;-82
2022/10/06 08:44:06;;;;;;;11.02;2.50;;;15.10;99.90;;;;;;4985745;28;20038;-83
2022/10/06 08:46:36;;;;;;;13.52;2.10;;;14.70;99.90;;;;;;4963936;28;20530;-83
2022/10/06 08:49:02;;;;;;;7.07;1.77;;;15.20;99.90;;;;;;4941663;28;20039;-82
2022/10/06 08:51:42;;;;;;;15.40;1.67;;;15.40;99.90;;;;;;4947906;28;20034;-82
2022/10/06 08:54:16;;;;;;;11.80;2.05;;;15.20;99.90;;;;;;4976696;28;20088;-83
2022/10/06 08:57:07;;;;;;;15.93;2.20;;;15.20;99.90;;;;;;4969110;28;20367;-82
2022/10/06 08:59:34;;;;;;;11.80;1.55;;;15.70;99.90;;;;;;4981659;28;20510;-82
2022/10/06 09:02:05;;;;;;;12.77;3.50;;;15.80;99.90;;;;;;4970119;28;20476;-83
2022/10/06 09:04:31;;;;;;;12.45;2.30;;;15.90;99.90;;;;;;4943437;28;20491;-83
2022/10/06 09:07:02;;;;;;;10.88;1.92;;;16.40;99.90;;;;;;4952770;28;20035;-82
2022/10/06 09:09:52;;;;;;;10.68;2.42;;;16.60;99.90;;;;;;4955022;28;20041;-82
2022/10/06 09:12:38;;;;;;;13.07;1.63;;;16.70;99.90;;;;;;5006846;28;20057;-82
2022/10/06 09:15:22;;;;;;;8.80;1.50;;;16.30;99.90;;;;;;5028488;28;20045;-82
2022/10/06 09:18:26;;;;;;;10.23;2.00;;;16.10;99.90;;;;;;4987354;28;20027;-82
2022/10/06 09:21:03;;;;;;;9.02;2.03;;;16.10;99.90;;;;;;4999223;28;20125;-82
2022/10/06 09:23:48;;;;;;;10.57;2.05;;;16.50;99.90;;;;;;5000020;28;20041;-82
2022/10/06 09:26:27;;;;;;;13.60;4.10;;;16.50;99.90;;;;;;5004087;28;20081;-82
2022/10/06 09:28:53;;;;;;;17.25;2.17;;;16.50;99.90;;;;;;4972889;28;20290;-82
2022/10/06 09:31:22;;;;;;;10.85;2.33;;;16.70;99.90;;;;;;4988749;28;20038;-83
2022/10/06 09:33:50;;;;;;;13.07;1.55;;;16.80;99.90;;;;;;4984665;28;20030;-82
2022/10/06 09:36:17;;;;;;;12.27;2.08;;;16.50;99.90;;;;;;4993388;28;20057;-82
2022/10/06 09:38:53;;;;;;;9.80;1.63;;;16.90;99.90;;;;;;4967294;28;20039;-83
2022/10/06 09:41:30;;;;;;;5.93;1.58;;;17.00;99.90;;;;;;4953910;28;20070;-83
2022/10/06 09:44:02;;;;;;;18.30;3.65;;;17.20;99.90;;;;;;4976698;28;20063;-84
2022/10/06 09:46:40;;;;;;;7.03;1.65;;;17.70;99.90;;;;;;5001873;28;20030;-84
2022/10/06 09:49:17;;;;;;;11.68;2.33;;;17.50;99.90;;;;;;4952956;28;20065;-84
2022/10/06 09:52:13;;;;;;;17.40;2.97;;;17.70;99.90;;;;;;4954222;28;20534;-84
2022/10/06 09:54:42;;;;;;;10.07;2.28;;;17.10;99.90;;;;;;4968626;28;20030;-83
2022/10/06 09:57:09;;;;;;;14.52;2.90;;;16.90;99.90;;;;;;4944053;28;20039;-84
2022/10/06 09:59:39;;;;;;;8.98;1.58;;;17.00;99.90;;;;;;4938324;28;20426;-84
2022/10/06 10:02:05;;;;;;;11.85;1.92;;;17.60;99.90;;;;;;4985905;28;20034;-84
2022/10/06 10:04:34;;;;;;;7.93;1.38;;;17.70;99.90;;;;;;4968197;28;20506;-83
2022/10/06 10:07:25;;;;;;;10.73;1.67;;;17.90;99.90;;;;;;4965928;28;20042;-83
2022/10/06 10:09:51;;;;;;;15.50;2.08;;;18.10;99.90;;;;;;4964620;28;20031;-83
2022/10/06 10:12:29;;;;;;;10.88;1.85;;;18.20;99.90;;;;;;4980119;28;20066;-84
2022/10/06 10:15:03;;;;;;;12.75;1.92;;;18.40;99.90;;;;;;4948394;28;20038;-83
2022/10/06 10:17:32;;;;;;;9.32;2.38;;;18.30;99.90;;;;;;4967101;28;20046;-84
2022/10/06 10:19:58;;;;;;;8.88;1.98;;;18.60;99.90;;;;;;4980975;28;20034;-84
2022/10/06 10:22:32;;;;;;;11.43;2.05;;;17.90;99.90;;;;;;4950869;28;20515;-83
2022/10/06 10:25:25;;;;;;;9.10;2.58;;;18.00;99.90;;;;;;4967030;28;20352;-84
2022/10/06 10:28:18;;;;;;;9.10;1.35;;;18.40;99.90;;;;;;4994320;28;20045;-84
2022/10/06 10:31:09;;;;;;;8.77;1.35;;;18.40;99.90;;;;;;4993393;28;20129;-83
2022/10/06 10:33:52;;;;;;;6.28;1.50;;;18.90;99.90;;;;;;4975113;28;20052;-84
2022/10/06 10:36:18;;;;;;;4.97;1.10;;;19.20;99.70;;;;;;5026357;28;20042;-83
2022/10/06 10:38:44;;;;;;;9.05;1.23;;;18.70;99.40;;;;;;4961495;28;20185;-84
2022/10/06 10:41:18;;;;;;;8.55;1.38;;;18.10;99.90;;;;;;4997447;28;20556;-83
2022/10/06 10:43:48;;;;;;;13.02;1.40;;;18.60;99.90;;;;;;4945601;28;20038;-84
2022/10/06 10:46:21;;;;;;;9.50;1.55;;;19.00;99.30;;;;;;4960740;28;20031;-84
2022/10/06 10:48:50;;;;;;;8.38;1.20;;;18.90;99.20;;;;;;4963756;28;20050;-84
2022/10/06 10:51:29;;;;;;;9.60;1.35;;;18.80;99.10;;;;;;4993873;28;20511;-85
2022/10/06 10:54:03;;;;;;;7.70;1.30;;;19.10;98.40;;;;;;4944380;28;20045;-83
2022/10/06 10:56:30;;;;;;;12.27;1.77;;;19.20;98.50;;;;;;4957084;28;20083;-83
2022/10/06 10:59:00;;;;;;;5.45;1.40;;;19.00;99.00;;;;;;4986314;28;20043;-83
2022/10/06 11:01:44;;;;;;;5.07;1.13;;;19.70;97.10;;;;;;4959373;28;20038;-83
2022/10/06 11:04:10;;;;;;;7.75;1.73;;;19.50;97.60;;;;;;4965459;28;20042;-84
2022/10/06 11:06:57;;;;;;;6.70;1.83;;;19.30;96.50;;;;;;4989202;28;20042;-84
2022/10/06 11:09:37;;;;;;;;;;;19.30;97.10;;;;;;4981957;28;20592;-84
2022/10/06 11:12:33;;;;;;;7.03;1.75;;;18.90;98.20;;;;;;4965048;28;19918;-84
2022/10/06 11:15:05;;;;;;;6.65;1.65;;;19.10;97.80;;;;;;4958351;28;20569;-84
2022/10/06 11:17:43;;;;;;;8.52;1.20;;;19.50;96.10;;;;;;4957593;28;20390;-83
2022/10/06 11:20:37;;;;;;;6.45;1.33;;;20.40;94.30;;;;;;4945450;28;20400;-84
2022/10/06 11:23:17;;;;;;;3.85;0.93;;;20.00;94.90;;;;;;4978185;28;20085;-84
2022/10/06 11:25:50;;;;;;;7.45;1.73;;;20.00;94.90;;;;;;5006997;28;20038;-84
2022/10/06 11:28:52;;;;;;;5.03;1.30;;;20.40;93.40;;;;;;4992817;28;20394;-84
2022/10/06 11:31:53;;;;;;;8.90;0.90;;;21.00;90.80;;;;;;4970050;28;20039;-84
2022/10/06 11:34:18;;;;;;;11.48;1.55;;;21.20;91.10;;;;;;4963224;28;20213;-84
2022/10/06 11:37:21;;;;;;;6.65;1.17;;;21.10;90.80;;;;;;4977522;28;20162;-84
2022/10/06 11:40:02;;;;;;;7.15;1.42;;;21.30;87.80;;;;;;4974223;28;20039;-83
2022/10/06 11:42:37;;;;;;;16.05;2.15;;;21.30;88.00;;;;;;4976454;28;20038;-84
2022/10/06 11:45:11;;;;;;;6.47;1.40;;;20.70;91.10;;;;;;4976411;28;20060;-84
2022/10/06 11:47:53;;;;;;;6.15;1.40;;;20.80;91.70;;;;;;5003473;28;20091;-83
2022/10/06 11:50:36;;;;;;;6.75;1.20;;;20.70;91.30;;;;;;5007202;28;20118;-83
2022/10/06 11:53:02;;;;;;;4.97;1.25;;;20.90;90.20;;;;;;4955871;28;20041;-83
2022/10/06 11:55:28;;;;;;;5.40;1.00;;;21.30;90.60;;;;;;4966895;28;20054;-83
2022/10/06 11:58:13;;;;;;;7.95;1.15;;;21.30;89.10;;;;;;4937103;28;20069;-83
2022/10/06 12:00:41;;;;;;;11.25;1.52;;;21.20;90.10;;;;;;4943551;28;20023;-83
2022/10/06 12:03:29;;;;;;;6.97;1.27;;;21.20;87.90;;;;;;4938039;28;20036;-83
2022/10/06 12:05:55;;;;;;;2.20;0.85;;;21.50;87.70;;;;;;4973961;28;20120;-83
2022/10/06 12:08:47;;;;;;;8.32;1.20;;;21.80;84.10;;;;;;4959462;28;20386;-83
2022/10/06 12:11:40;;;;;;;5.20;0.75;;;21.80;80.90;;;;;;4954937;28;20498;-83
2022/10/06 12:14:29;;;;;;;2.05;0.75;;;22.00;83.30;;;;;;4974701;28;20170;-83
2022/10/06 12:17:02;;;;;;;5.85;0.95;;;21.60;83.60;;;;;;4969749;28;20507;-83
2022/10/06 12:19:37;;;;;;;3.65;1.15;;;22.00;79.90;;;;;;4945344;28;20038;-82
2022/10/06 12:22:42;;;;;;;3.38;0.75;;;22.10;77.00;;;;;;4966067;28;20508;-82
2022/10/06 12:25:16;;;;;;;3.25;0.85;;;21.60;78.70;;;;;;4987124;28;20034;-83
2022/10/06 12:28:01;;;;;;;6.85;0.93;;;21.30;81.20;;;;;;4979645;28;20107;-83
2022/10/06 12:30:41;;;;;;;4.90;1.00;;;21.30;82.90;;;;;;4977934;28;20100;-83
2022/10/06 12:33:07;;;;;;;4.60;0.90;;;21.70;79.20;;;;;;4971276;28;20089;-83
2022/10/06 12:35:35;;;;;;;7.82;3.03;;;21.50;79.20;;;;;;4942897;28;20035;-83
2022/10/06 12:38:05;;;;;;;6.13;1.23;;;21.70;78.90;;;;;;4954067;28;20065;-83
2022/10/06 12:40:45;;;;;;;6.97;1.02;;;22.00;79.40;;;;;;4954323;28;20035;-82
2022/10/06 12:43:11;;;;;;;7.63;1.13;;;22.00;76.80;;;;;;4986022;28;20033;-82
2022/10/06 12:46:01;;;;;;;7.68;0.82;;;21.80;76.70;;;;;;4980375;28;20031;-83
2022/10/06 12:48:35;;;;;;;3.80;0.80;;;21.80;78.00;;;;;;4970727;28;20058;-83
2022/10/06 12:51:11;;;;;;;3.05;0.80;;;22.40;75.40;;;;;;4977521;28;20034;-84
2022/10/06 12:54:10;;;;;;;7.78;1.10;;;21.90;76.30;;;;;;5002927;28;20534;-83
2022/10/06 12:56:37;;;;;;;3.85;0.68;;;22.10;77.70;;;;;;4976321;28;20038;-83
2022/10/06 12:59:25;;;;;;;5.78;1.10;;;22.40;73.90;;;;;;4969977;28;20035;-83
2022/10/06 13:01:52;;;;;;;4.18;0.70;;;22.30;74.60;;;;;;5007165;28;20034;-83
2022/10/06 13:04:41;;;;;;;4.28;1.20;;;22.10;76.30;;;;;;4979335;28;20168;-83
2022/10/06 13:07:23;;;;;;;7.07;1.27;;;22.00;75.30;;;;;;5014356;28;20053;-82
2022/10/06 13:09:52;;;;;;;6.90;0.93;;;21.80;76.30;;;;;;4999645;28;20144;-82
2022/10/06 13:12:20;;;;;;;5.18;0.90;;;21.90;73.80;;;;;;5005500;28;20402;-84
2022/10/06 13:14:47;;;;;;;6.20;1.30;;;21.70;76.10;;;;;;5032082;28;20088;-83
2022/10/06 13:17:13;;;;;;;5.25;0.88;;;21.90;74.90;;;;;;5006471;28;20039;-83